createdAt,value
2019-05-19T00:02:26.209Z,2.37
2019-05-19T00:05:02.152Z,2.12
2019-05-19T00:07:38.845Z,2.55
2019-05-19T00:10:14.889Z,2.37
2019-05-19T00:12:51.696Z,2.17
2019-05-19T00:15:28.304Z,2.50
2019-05-19T00:18:04.585Z,2.37
2019-05-19T00:20:40.957Z,2.20
2019-05-19T00:23:17.289Z,2.00
2019-05-19T00:25:53.516Z,2.10
2019-05-19T00:28:29.463Z,2.23
2019-05-19T00:31:06.165Z,1.92
2019-05-19T00:33:42.392Z,2.42
2019-05-19T00:36:19.660Z,2.40
2019-05-19T00:38:56.930Z,2.17
2019-05-19T00:41:33.113Z,2.70
2019-05-19T00:44:09.701Z,2.00
2019-05-19T00:46:45.642Z,2.20
2019-05-19T00:49:21.364Z,2.75
2019-05-19T00:51:57.448Z,2.25
2019-05-19T00:54:33.868Z,2.20
2019-05-19T00:57:10.678Z,2.15
2019-05-19T00:59:48.248Z,1.90
2019-05-19T01:02:23.996Z,2.10
2019-05-19T01:05:00.260Z,2.00
2019-05-19T01:07:36.261Z,1.80
2019-05-19T01:10:12.949Z,2.10
2019-05-19T01:12:49.495Z,2.60
2019-05-19T01:15:26.083Z,2.37
2019-05-19T01:18:02.189Z,2.33
2019-05-19T01:20:38.997Z,2.08
2019-05-19T01:23:15.574Z,2.08
2019-05-19T01:25:51.332Z,1.92
2019-05-19T01:28:27.302Z,2.00
2019-05-19T01:31:04.221Z,1.82
2019-05-19T01:33:40.120Z,2.00
2019-05-19T01:36:17.030Z,1.55
2019-05-19T01:38:53.165Z,2.23
2019-05-19T01:41:29.992Z,1.77
2019-05-19T01:44:06.506Z,1.90
2019-05-19T01:46:43.604Z,1.72
2019-05-19T01:49:20.038Z,1.45
2019-05-19T01:51:56.632Z,2.03
2019-05-19T01:54:33.101Z,1.80
2019-05-19T01:57:09.314Z,1.70
2019-05-19T01:59:45.726Z,1.77
2019-05-19T02:02:22.041Z,2.02
2019-05-19T02:04:58.409Z,1.62
2019-05-19T02:07:35.925Z,1.87
2019-05-19T02:10:12.701Z,1.97
2019-05-19T02:12:50.642Z,1.90
2019-05-19T02:15:26.993Z,1.80
2019-05-19T02:18:02.824Z,1.70
2019-05-19T02:20:38.794Z,1.83
2019-05-19T02:23:15.349Z,1.72
2019-05-19T02:25:52.249Z,2.12
2019-05-19T02:28:28.024Z,1.80
2019-05-19T02:31:04.575Z,1.57
2019-05-19T02:33:41.764Z,1.62
2019-05-19T02:36:17.891Z,1.55
2019-05-19T02:38:54.256Z,1.90
2019-05-19T02:41:32.490Z,1.57
2019-05-19T02:44:09.974Z,1.77
2019-05-19T02:46:46.974Z,1.80
2019-05-19T02:49:24.385Z,1.80
2019-05-19T02:52:03.606Z,2.30
2019-05-19T02:54:40.578Z,1.82
2019-05-19T02:57:17.070Z,1.50
2019-05-19T02:59:54.874Z,1.45
2019-05-19T03:02:31.217Z,1.65
2019-05-19T03:05:08.018Z,1.72
2019-05-19T03:07:44.458Z,1.50
2019-05-19T03:10:21.070Z,1.50
2019-05-19T03:12:58.198Z,1.60
2019-05-19T03:15:34.842Z,1.60
2019-05-19T03:18:10.794Z,1.50
2019-05-19T03:20:46.865Z,1.70
2019-05-19T03:23:24.277Z,1.60
2019-05-19T03:26:00.188Z,1.52
2019-05-19T03:28:36.437Z,1.40
2019-05-19T03:31:37.517Z,1.53
2019-05-19T03:34:14.518Z,1.40
2019-05-19T03:36:50.994Z,1.75
2019-05-19T03:39:27.787Z,1.85
2019-05-19T03:42:04.067Z,1.80
2019-05-19T03:44:40.627Z,1.50
2019-05-19T03:47:18.126Z,1.80
2019-05-19T03:49:54.064Z,1.67
2019-05-19T03:52:30.597Z,1.40
2019-05-19T03:55:07.533Z,1.40
2019-05-19T03:57:43.988Z,1.40
2019-05-19T04:00:20.412Z,1.37
2019-05-19T04:02:56.356Z,1.62
2019-05-19T04:05:32.770Z,1.82
2019-05-19T04:08:09.727Z,1.67
2019-05-19T04:10:46.108Z,1.80
2019-05-19T04:13:22.676Z,1.42
2019-05-19T04:15:58.742Z,1.47
2019-05-19T04:18:35.025Z,1.30
2019-05-19T04:21:10.865Z,1.57
2019-05-19T04:23:47.827Z,1.50
2019-05-19T04:26:23.629Z,1.25
2019-05-19T04:29:00.865Z,1.45
2019-05-19T04:31:37.453Z,1.47
2019-05-19T04:34:13.997Z,1.77
2019-05-19T04:36:49.985Z,1.73
2019-05-19T04:39:26.565Z,1.37
2019-05-19T04:42:03.219Z,1.57
2019-05-19T04:44:40.266Z,1.52
2019-05-19T04:47:16.755Z,1.57
2019-05-19T04:49:53.764Z,1.42
2019-05-19T04:52:30.230Z,1.35
2019-05-19T04:55:06.841Z,1.72
2019-05-19T04:57:43.467Z,1.50
2019-05-19T05:00:19.892Z,1.45
2019-05-19T05:02:56.809Z,1.40
2019-05-19T05:05:33.024Z,1.45
2019-05-19T05:08:27.172Z,1.60
2019-05-19T05:10:47.667Z,1.60
2019-05-19T05:13:24.270Z,1.32
2019-05-19T05:16:00.565Z,1.63
2019-05-19T05:18:36.900Z,1.50
2019-05-19T05:21:13.757Z,1.40
2019-05-19T05:23:50.304Z,1.55
2019-05-19T05:26:27.709Z,1.30
2019-05-19T05:29:03.856Z,1.40
2019-05-19T05:31:40.521Z,1.70
2019-05-19T05:34:16.781Z,1.33
2019-05-19T05:36:53.019Z,1.50
2019-05-19T05:39:29.113Z,1.40
2019-05-19T05:42:05.487Z,1.43
2019-05-19T05:44:42.297Z,1.30
2019-05-19T05:47:19.541Z,1.20
2019-05-19T05:49:55.891Z,1.60
2019-05-19T05:52:38.433Z,1.10
2019-05-19T05:55:10.484Z,1.42
2019-05-19T05:57:47.056Z,1.70
2019-05-19T06:00:23.517Z,1.30
2019-05-19T06:02:59.596Z,1.37
2019-05-19T06:05:36.238Z,1.60
2019-05-19T06:08:11.925Z,1.50
2019-05-19T06:10:48.876Z,1.50
2019-05-19T06:13:25.555Z,1.50
2019-05-19T06:16:01.704Z,1.77
2019-05-19T06:18:37.783Z,1.70
2019-05-19T06:21:13.612Z,1.82
2019-05-19T06:23:50.003Z,1.20
2019-05-19T06:26:26.559Z,1.40
2019-05-19T06:29:02.833Z,1.50
2019-05-19T06:31:39.497Z,1.37
2019-05-19T06:34:16.438Z,1.80
2019-05-19T06:36:55.066Z,2.47
2019-05-19T06:39:30.785Z,2.33
2019-05-19T06:42:07.425Z,5.33
2019-05-19T06:44:43.902Z,3.83
2019-05-19T06:47:20.056Z,5.33
2019-05-19T06:49:56.337Z,4.28
2019-05-19T06:52:33.305Z,3.37
2019-05-19T06:55:09.428Z,4.05
2019-05-19T06:57:45.718Z,5.00
2019-05-19T07:00:22.867Z,4.05
2019-05-19T07:02:59.699Z,4.40
2019-05-19T07:05:35.581Z,4.03
2019-05-19T07:08:11.480Z,4.28
2019-05-19T07:10:48.415Z,5.72
2019-05-19T07:13:24.417Z,6.00
2019-05-19T07:16:01.278Z,4.67
2019-05-19T07:18:37.198Z,4.25
2019-05-19T07:21:14.219Z,4.03
2019-05-19T07:23:50.636Z,3.30
2019-05-19T07:26:26.637Z,4.12
2019-05-19T07:29:02.365Z,4.25
2019-05-19T07:31:38.880Z,4.15
2019-05-19T07:34:15.457Z,3.55
2019-05-19T07:36:51.680Z,4.42
2019-05-19T07:39:28.007Z,5.08
2019-05-19T07:42:05.282Z,5.00
2019-05-19T07:44:45.054Z,3.80
2019-05-19T07:47:19.946Z,3.42
2019-05-19T07:49:56.828Z,3.33
2019-05-19T07:52:35.981Z,4.05
2019-05-19T07:55:13.498Z,3.58
2019-05-19T07:57:50.291Z,3.33
2019-05-19T08:00:26.938Z,3.97
2019-05-19T08:03:04.532Z,3.80
2019-05-19T08:05:40.961Z,4.13
2019-05-19T08:08:18.249Z,3.98
2019-05-19T08:10:54.516Z,3.92
2019-05-19T08:13:30.744Z,3.80
2019-05-19T08:16:06.620Z,3.90
2019-05-19T08:18:43.425Z,4.67
2019-05-19T08:21:19.507Z,3.90
2019-05-19T08:24:00.284Z,3.85
2019-05-19T08:26:34.545Z,4.55
2019-05-19T08:29:11.017Z,4.10
2019-05-19T08:31:47.378Z,4.95
2019-05-19T08:34:23.758Z,4.42
2019-05-19T08:37:00.128Z,4.75
2019-05-19T08:39:36.905Z,4.50
2019-05-19T08:42:14.353Z,4.12
2019-05-19T08:44:51.618Z,4.28
2019-05-19T08:47:28.061Z,4.90
2019-05-19T08:50:06.844Z,4.22
2019-05-19T08:52:43.139Z,3.45
2019-05-19T08:55:19.167Z,4.62
2019-05-19T08:57:54.946Z,5.17
2019-05-19T09:00:37.606Z,4.40
2019-05-19T09:03:11.629Z,3.98
2019-05-19T09:05:48.786Z,4.22
2019-05-19T09:08:25.937Z,4.60
2019-05-19T09:11:02.533Z,4.90
2019-05-19T09:13:38.969Z,4.33
2019-05-19T09:16:15.274Z,5.17
2019-05-19T09:18:52.083Z,4.10
2019-05-19T09:21:28.785Z,4.28
2019-05-19T09:24:05.391Z,4.17
2019-05-19T09:26:41.221Z,4.08
2019-05-19T09:29:18.041Z,3.55
2019-05-19T09:31:54.802Z,3.95
2019-05-19T09:34:31.358Z,4.53
2019-05-19T09:37:08.162Z,3.58
2019-05-19T09:39:44.130Z,4.22
2019-05-19T09:42:20.366Z,3.45
2019-05-19T09:44:57.263Z,3.65
2019-05-19T09:47:33.633Z,3.70
2019-05-19T09:50:10.546Z,3.85
2019-05-19T09:52:47.657Z,3.80
2019-05-19T09:55:23.551Z,4.55
2019-05-19T09:58:00.323Z,3.27
2019-05-19T10:00:37.376Z,4.30
2019-05-19T10:03:14.054Z,4.40
2019-05-19T10:05:50.593Z,3.50
2019-05-19T10:08:35.288Z,3.58
2019-05-19T10:12:01.552Z,3.37
2019-05-19T10:14:38.583Z,3.87
2019-05-19T10:17:15.566Z,3.75
2019-05-19T10:19:52.210Z,4.33
2019-05-19T10:22:28.348Z,4.40
2019-05-19T10:25:20.908Z,3.95
2019-05-19T10:27:43.518Z,3.25
2019-05-19T10:30:20.434Z,3.47
2019-05-19T10:32:58.727Z,3.47
2019-05-19T10:35:34.885Z,3.22
2019-05-19T10:38:10.926Z,3.77
2019-05-19T10:40:47.311Z,3.35
2019-05-19T10:43:24.214Z,3.25
2019-05-19T10:46:00.711Z,3.77
2019-05-19T10:48:37.361Z,3.30
2019-05-19T10:51:13.901Z,3.55
2019-05-19T10:53:50.032Z,3.45
2019-05-19T10:56:26.831Z,4.10
2019-05-19T10:59:02.855Z,2.90
2019-05-19T11:01:39.198Z,3.83
2019-05-19T11:04:15.045Z,2.90
2019-05-19T11:06:51.035Z,3.20
2019-05-19T11:09:27.573Z,2.83
2019-05-19T11:12:04.557Z,3.58
2019-05-19T11:14:40.920Z,3.22
2019-05-19T11:17:16.835Z,3.20
2019-05-19T11:19:52.863Z,3.50
2019-05-19T11:22:29.604Z,3.42
2019-05-19T11:25:06.057Z,3.58
2019-05-19T11:27:41.963Z,3.67
2019-05-19T11:30:17.795Z,3.92
2019-05-19T11:32:53.738Z,3.90
2019-05-19T11:35:30.122Z,4.20
2019-05-19T11:38:06.718Z,4.30
2019-05-19T11:40:42.977Z,3.70
2019-05-19T11:43:20.452Z,4.15
2019-05-19T11:45:57.120Z,3.50
2019-05-19T11:48:34.361Z,3.95
2019-05-19T11:51:10.463Z,3.87
2019-05-19T11:53:47.132Z,4.17
2019-05-19T11:56:23.497Z,5.03
2019-05-19T11:58:59.665Z,4.85
2019-05-19T12:01:35.694Z,4.50
2019-05-19T12:04:11.984Z,4.28
2019-05-19T12:06:48.157Z,4.37
2019-05-19T12:09:25.088Z,4.50
2019-05-19T12:12:01.454Z,4.45
2019-05-19T12:14:38.154Z,4.83
2019-05-19T12:17:14.297Z,4.62
2019-05-19T12:19:52.353Z,4.25
2019-05-19T12:22:29.937Z,4.65
2019-05-19T12:25:06.709Z,4.53
2019-05-19T12:27:42.976Z,4.45
2019-05-19T12:30:21.585Z,4.65
2019-05-19T12:32:59.383Z,4.47
2019-05-19T12:35:36.198Z,4.47
2019-05-19T12:38:12.361Z,5.05
2019-05-19T12:40:48.621Z,4.83
2019-05-19T12:43:24.948Z,4.47
2019-05-19T12:46:01.727Z,4.05
2019-05-19T12:48:37.991Z,4.90
2019-05-19T12:51:14.361Z,4.70
2019-05-19T12:53:50.627Z,4.78
2019-05-19T12:56:39.220Z,4.70
2019-05-19T12:59:04.593Z,4.83
2019-05-19T13:01:40.988Z,4.70
2019-05-19T13:04:18.091Z,4.62
2019-05-19T13:06:54.889Z,4.70
2019-05-19T13:09:31.198Z,4.65
2019-05-19T13:12:08.176Z,4.65
2019-05-19T13:14:44.604Z,5.20
2019-05-19T13:17:23.837Z,4.60
2019-05-19T13:20:00.418Z,4.45
2019-05-19T13:22:36.661Z,4.85
2019-05-19T13:25:13.710Z,4.60
2019-05-19T13:27:51.089Z,4.58
2019-05-19T13:30:27.685Z,5.10
2019-05-19T13:33:04.232Z,4.58
2019-05-19T13:35:43.088Z,4.28
2019-05-19T13:38:19.816Z,4.47
2019-05-19T13:40:56.047Z,4.10
2019-05-19T13:43:32.896Z,4.37
2019-05-19T13:46:08.932Z,4.45
2019-05-19T13:48:45.457Z,4.53
2019-05-19T13:51:22.352Z,4.10
2019-05-19T13:53:59.476Z,4.50
2019-05-19T13:56:35.754Z,4.33
2019-05-19T13:59:12.168Z,4.40
2019-05-19T14:01:48.757Z,4.12
2019-05-19T14:04:26.124Z,4.45
2019-05-19T14:07:02.168Z,4.53
2019-05-19T14:09:38.398Z,4.45
2019-05-19T14:12:14.954Z,4.50
2019-05-19T14:14:51.319Z,4.22
2019-05-19T14:17:27.590Z,4.03
2019-05-19T14:20:04.737Z,4.12
2019-05-19T14:22:40.769Z,4.28
2019-05-19T14:25:17.789Z,3.98
2019-05-19T14:27:54.971Z,4.35
2019-05-19T14:30:30.748Z,3.50
2019-05-19T14:33:06.966Z,3.90
2019-05-19T14:35:44.176Z,4.15
2019-05-19T14:38:20.865Z,3.70
2019-05-19T14:40:57.856Z,3.95
2019-05-19T14:43:35.639Z,4.50
2019-05-19T14:46:12.647Z,3.90
2019-05-19T14:48:49.907Z,4.10
2019-05-19T14:51:28.118Z,4.08
2019-05-19T14:54:04.678Z,4.00
2019-05-19T14:56:41.495Z,4.03
2019-05-19T14:59:17.433Z,4.08
2019-05-19T15:01:53.831Z,4.00
2019-05-19T15:04:30.634Z,3.83
2019-05-19T15:07:07.412Z,3.83
2019-05-19T15:09:44.481Z,3.50
2019-05-19T15:12:21.540Z,3.72
2019-05-19T15:14:57.316Z,3.92
2019-05-19T15:17:33.201Z,4.22
2019-05-19T15:20:10.059Z,3.58
2019-05-19T15:22:48.737Z,4.22
2019-05-19T15:25:24.613Z,3.83
2019-05-19T15:28:04.422Z,3.85
2019-05-19T15:30:38.633Z,3.52
2019-05-19T15:33:14.555Z,4.33
2019-05-19T15:35:50.805Z,3.42
2019-05-19T15:38:27.380Z,3.20
2019-05-19T15:41:04.075Z,3.92
2019-05-19T15:43:40.474Z,3.77
2019-05-19T15:46:18.959Z,3.85
2019-05-19T15:48:56.160Z,3.25
2019-05-19T15:51:37.473Z,3.42
2019-05-19T15:54:10.420Z,3.50
2019-05-19T15:56:47.349Z,3.60
2019-05-19T15:59:23.367Z,3.55
2019-05-19T16:01:59.489Z,3.27
2019-05-19T16:04:35.437Z,3.50
2019-05-19T16:07:11.504Z,3.50
2019-05-19T16:09:48.779Z,3.83
2019-05-19T16:12:25.527Z,3.52
2019-05-19T16:15:02.050Z,3.15
2019-05-19T16:17:38.439Z,3.08
2019-05-19T16:20:15.506Z,3.15
2019-05-19T16:22:51.419Z,3.42
2019-05-19T16:25:28.328Z,3.30
2019-05-19T16:28:05.056Z,3.42
2019-05-19T16:30:40.899Z,3.62
2019-05-19T16:33:17.320Z,3.42
2019-05-19T16:35:53.622Z,3.52
2019-05-19T16:38:29.974Z,3.40
2019-05-19T16:41:05.889Z,3.00
2019-05-19T16:43:42.170Z,3.33
2019-05-19T16:46:18.294Z,3.17
2019-05-19T16:48:55.565Z,3.22
2019-05-19T16:51:32.286Z,3.20
2019-05-19T16:54:15.122Z,3.00
2019-05-19T16:56:51.733Z,3.15
2019-05-19T16:59:28.808Z,3.05
2019-05-19T17:02:04.873Z,3.50
2019-05-19T17:04:41.151Z,3.10
2019-05-19T17:07:17.409Z,3.02
2019-05-19T17:09:53.610Z,2.90
2019-05-19T17:12:30.003Z,2.83
2019-05-19T17:15:06.611Z,3.45
2019-05-19T17:17:42.621Z,3.02
2019-05-19T17:20:20.454Z,2.55
2019-05-19T17:22:56.942Z,2.85
2019-05-19T17:25:33.316Z,3.22
2019-05-19T17:28:10.479Z,2.70
2019-05-19T17:30:46.841Z,2.62
2019-05-19T17:33:23.241Z,2.70
2019-05-19T17:35:59.641Z,2.58
2019-05-19T17:38:36.840Z,2.98
2019-05-19T17:41:13.472Z,2.52
2019-05-19T17:43:49.546Z,2.60
2019-05-19T17:46:25.839Z,2.83
2019-05-19T17:49:01.934Z,2.60
2019-05-19T17:51:38.491Z,3.10
2019-05-19T17:54:15.676Z,2.67
2019-05-19T17:56:55.354Z,2.83
2019-05-19T17:59:32.751Z,2.90
2019-05-19T18:02:09.190Z,3.27
2019-05-19T18:04:47.270Z,2.77
2019-05-19T18:07:23.913Z,2.25
2019-05-19T18:10:00.216Z,2.77
2019-05-19T18:12:37.171Z,2.58
2019-05-19T18:15:13.787Z,2.52
2019-05-19T18:17:49.468Z,2.95
2019-05-19T18:20:26.088Z,2.50
2019-05-19T18:23:02.350Z,2.80
2019-05-19T18:25:38.585Z,2.98
2019-05-19T18:28:15.008Z,2.98
2019-05-19T18:30:52.549Z,2.72
2019-05-19T18:33:28.885Z,2.77
2019-05-19T18:36:05.112Z,2.45
2019-05-19T18:38:41.548Z,2.62
2019-05-19T18:41:17.636Z,2.87
2019-05-19T18:43:54.522Z,3.12
2019-05-19T18:46:31.161Z,3.00
2019-05-19T18:49:07.924Z,2.98
2019-05-19T18:51:44.636Z,2.90
2019-05-19T18:54:21.116Z,2.40
2019-05-19T18:56:57.453Z,3.25
2019-05-19T18:59:46.511Z,3.27
2019-05-19T19:02:12.244Z,3.40
2019-05-19T19:04:48.694Z,3.83
2019-05-19T19:07:45.062Z,3.58
2019-05-19T19:10:21.928Z,3.55
2019-05-19T19:12:58.486Z,3.10
2019-05-19T19:15:34.754Z,3.20
2019-05-19T19:18:12.253Z,3.40
2019-05-19T19:20:48.927Z,4.05
2019-05-19T19:23:25.575Z,3.50
2019-05-19T19:26:02.683Z,3.52
2019-05-19T19:28:40.858Z,3.40
2019-05-19T19:31:17.105Z,3.47
2019-05-19T19:33:53.096Z,3.17
2019-05-19T19:36:29.813Z,3.40
2019-05-19T19:39:07.486Z,3.70
2019-05-19T19:41:45.953Z,3.35
2019-05-19T19:44:21.978Z,3.42
2019-05-19T19:46:58.529Z,3.65
2019-05-19T19:49:35.476Z,4.08
2019-05-19T19:52:12.593Z,3.62
2019-05-19T19:54:49.088Z,3.45
2019-05-19T19:57:25.477Z,3.65
2019-05-19T20:00:02.405Z,3.45
2019-05-19T20:02:38.950Z,3.20
2019-05-19T20:05:16.076Z,3.85
2019-05-19T20:07:53.067Z,3.20
2019-05-19T20:10:29.958Z,3.65
2019-05-19T20:13:06.768Z,4.03
2019-05-19T20:15:42.951Z,3.62
2019-05-19T20:18:18.986Z,3.27
2019-05-19T20:20:55.590Z,3.47
2019-05-19T20:23:31.924Z,3.45
2019-05-19T20:26:07.856Z,3.22
2019-05-19T20:28:43.656Z,3.60
2019-05-19T20:31:20.506Z,4.00
2019-05-19T20:33:56.426Z,3.12
2019-05-19T20:36:33.866Z,3.52
2019-05-19T20:39:10.053Z,3.30
2019-05-19T20:41:46.761Z,3.45
2019-05-19T20:44:24.196Z,2.72
2019-05-19T20:47:01.325Z,2.98
2019-05-19T20:49:40.787Z,3.47
2019-05-19T20:52:17.476Z,2.85
2019-05-19T20:54:53.831Z,3.55
2019-05-19T20:57:30.565Z,3.45
2019-05-19T21:00:08.076Z,3.67
2019-05-19T21:02:45.345Z,3.40
2019-05-19T21:05:22.362Z,3.55
2019-05-19T21:07:58.825Z,3.55
2019-05-19T21:10:35.057Z,3.67
2019-05-19T21:13:11.229Z,3.22
2019-05-19T21:15:47.669Z,3.30
2019-05-19T21:18:24.845Z,3.08
2019-05-19T21:21:01.265Z,3.52
2019-05-19T21:23:37.650Z,3.40
2019-05-19T21:26:13.849Z,2.95
2019-05-19T21:28:49.742Z,3.62
2019-05-19T21:31:25.905Z,3.27
2019-05-19T21:34:02.153Z,3.45
2019-05-19T21:36:38.432Z,3.22
2019-05-19T21:39:14.635Z,3.10
2019-05-19T21:41:51.263Z,3.55
2019-05-19T21:44:27.098Z,2.95
2019-05-19T21:47:03.245Z,3.02
2019-05-19T21:49:39.485Z,3.30
2019-05-19T21:52:15.990Z,3.55
2019-05-19T21:54:53.687Z,3.30
2019-05-19T21:57:30.072Z,2.92
2019-05-19T22:00:08.478Z,3.55
2019-05-19T22:02:44.190Z,3.45
2019-05-19T22:05:20.929Z,3.08
2019-05-19T22:08:06.908Z,3.30
2019-05-19T22:10:43.497Z,3.33
2019-05-19T22:13:19.743Z,3.08
2019-05-19T22:16:11.673Z,3.70
2019-05-19T22:18:34.769Z,3.35
2019-05-19T22:21:11.699Z,3.25
2019-05-19T22:23:47.561Z,3.12
2019-05-19T22:26:24.724Z,3.15
2019-05-19T22:29:02.537Z,3.08
2019-05-19T22:31:39.349Z,3.30
2019-05-19T22:34:16.622Z,3.08
2019-05-19T22:36:53.286Z,3.15
2019-05-19T22:39:29.886Z,3.22
2019-05-19T22:42:06.185Z,3.15
2019-05-19T22:44:43.293Z,3.00
2019-05-19T22:47:19.616Z,2.77
2019-05-19T22:49:56.139Z,2.87
2019-05-19T22:52:32.338Z,2.95
2019-05-19T22:55:08.570Z,2.85
2019-05-19T22:57:45.056Z,3.33
2019-05-19T23:00:21.936Z,3.10
2019-05-19T23:02:58.464Z,3.27
2019-05-19T23:05:34.277Z,3.33
2019-05-19T23:08:11.940Z,3.00
2019-05-19T23:10:49.148Z,2.90
2019-05-19T23:13:25.849Z,3.00
2019-05-19T23:16:01.708Z,2.92
2019-05-19T23:18:39.106Z,3.15
2019-05-19T23:21:15.778Z,3.00
2019-05-19T23:23:52.338Z,2.92
2019-05-19T23:26:28.453Z,2.95
2019-05-19T23:29:04.598Z,2.90
2019-05-19T23:31:41.030Z,2.72
2019-05-19T23:34:17.535Z,3.33
2019-05-19T23:36:54.096Z,3.22
2019-05-19T23:39:31.368Z,3.08
2019-05-19T23:42:07.963Z,2.95
2019-05-19T23:44:44.099Z,2.65
2019-05-19T23:47:20.973Z,2.65
2019-05-19T23:49:57.699Z,3.25
2019-05-19T23:52:34.338Z,2.62
2019-05-19T23:55:12.233Z,2.50
2019-05-19T23:57:49.752Z,2.95
